Time;durP1;ratioP1;P1;durP2;ratioP2;P2;SDS_P1;SDS_P2;PMS_P1;PMS_P2;Temp;Humidity;BMP_temperature;BMP_pressure;BME280_temperature;BME280_humidity;BME280_pressure;Samples;Min_cycle;Max_cycle;Signal;HPM_P1;HPM_P2
2023/02/17 00:01:57;;;;;;;23.08;10.73;;;;;;;7.28;93.34;101072.44;5004707;28;20038;-70
2023/02/17 00:04:22;;;;;;;28.25;11.00;;;;;;;7.27;93.83;101073.31;5005686;28;20048;-70
2023/02/17 00:06:48;;;;;;;19.33;10.05;;;;;;;7.33;93.92;101071.63;5007489;28;20059;-70
2023/02/17 00:09:13;;;;;;;25.17;11.00;;;;;;;7.39;92.97;101063.00;5005942;28;20037;-70
2023/02/17 00:11:38;;;;;;;21.50;10.32;;;;;;;7.45;92.79;101063.09;5004278;28;20572;-70
2023/02/17 00:14:04;;;;;;;20.23;14.00;;;;;;;7.50;92.75;101058.78;5006031;28;20087;-70
2023/02/17 00:16:29;;;;;;;23.20;15.25;;;;;;;7.54;92.15;101057.94;5008934;28;20112;-70
2023/02/17 00:18:59;;;;;;;25.30;13.35;;;;;;;7.55;91.83;101054.50;5004577;28;20042;-70
2023/02/17 00:21:28;;;;;;;25.00;14.15;;;;;;;7.56;92.38;101050.97;5013251;28;20029;-70
2023/02/17 00:23:56;;;;;;;21.27;12.70;;;;;;;7.59;92.02;101055.41;5009666;28;20624;-70
2023/02/17 00:26:22;;;;;;;26.88;15.02;;;;;;;7.61;91.97;101053.69;5006287;28;20039;-70
2023/02/17 00:28:48;;;;;;;20.55;12.73;;;;;;;7.64;91.96;101053.72;5011502;28;20149;-70
2023/02/17 00:31:20;;;;;;;21.63;12.95;;;;;;;7.73;91.89;101055.59;5008462;28;20057;-70
2023/02/17 00:33:46;;;;;;;23.08;13.35;;;;;;;7.72;92.59;101049.47;5005916;28;20037;-70
2023/02/17 00:36:16;;;;;;;23.13;13.15;;;;;;;7.82;91.72;101053.97;5005994;28;20029;-70
2023/02/17 00:38:42;;;;;;;22.10;13.43;;;;;;;7.89;91.64;101044.44;4987973;28;20037;-70
2023/02/17 00:41:07;;;;;;;20.45;12.23;;;;;;;7.93;91.86;101045.34;5003404;28;20034;-70
2023/02/17 00:43:33;;;;;;;23.50;13.15;;;;;;;7.96;92.09;101043.63;4988140;28;20034;-70
2023/02/17 00:45:58;;;;;;;24.40;13.13;;;;;;;7.97;91.33;101047.19;4996665;28;20470;-70
2023/02/17 00:48:23;;;;;;;22.13;12.88;;;;;;;7.96;91.42;101051.53;5006519;28;20042;-70
2023/02/17 00:50:49;;;;;;;22.27;12.82;;;;;;;7.94;91.58;101041.84;5002888;28;20128;-70
2023/02/17 00:53:14;;;;;;;20.95;11.80;;;;;;;7.92;91.39;101043.59;5006052;28;20035;-70
2023/02/17 00:55:40;;;;;;;17.92;11.38;;;;;;;7.84;91.77;101047.00;5005295;28;20724;-70
2023/02/17 00:58:05;;;;;;;21.23;12.35;;;;;;;7.75;92.34;101038.97;5004719;28;20077;-70
2023/02/17 01:00:31;;;;;;;23.90;13.55;;;;;;;7.66;92.90;101041.50;4989523;28;20034;-70
2023/02/17 01:02:59;;;;;;;26.23;11.55;;;;;;;7.57;93.44;101049.22;5006031;28;20034;-70
2023/02/17 01:05:24;;;;;;;24.35;12.68;;;;;;;7.59;93.56;101048.41;4989751;28;20042;-70
2023/02/17 01:07:50;;;;;;;25.90;12.90;;;;;;;7.64;93.12;101049.34;5002195;28;20026;-70
2023/02/17 01:10:15;;;;;;;21.45;12.40;;;;;;;7.69;92.83;101045.03;5008443;28;20543;-70
2023/02/17 01:12:40;;;;;;;19.48;11.95;;;;;;;7.71;92.54;101042.44;5004445;28;20488;-70
2023/02/17 01:15:07;;;;;;;20.00;11.90;;;;;;;7.74;92.92;101050.38;4986977;28;20661;-70
2023/02/17 01:17:32;;;;;;;19.95;11.93;;;;;;;7.77;92.34;101050.41;4994616;28;20488;-70
2023/02/17 01:19:57;;;;;;;19.05;11.35;;;;;;;7.76;92.63;101040.78;5011618;28;20030;-70
2023/02/17 01:22:23;;;;;;;23.50;11.88;;;;;;;7.81;93.02;101038.22;4984992;28;20456;-70
2023/02/17 01:24:48;;;;;;;20.75;11.32;;;;;;;7.92;92.25;101027.84;4987319;28;20121;-70
2023/02/17 01:27:13;;;;;;;21.60;11.27;;;;;;;8.02;91.57;101029.72;5001987;28;20034;-70
2023/02/17 01:29:39;;;;;;;22.02;12.27;;;;;;;8.04;91.34;101022.69;4974332;28;20025;-70
2023/02/17 01:32:04;;;;;;;24.33;13.10;;;;;;;8.05;90.95;101022.72;5001740;28;20030;-70
2023/02/17 01:34:29;;;;;;;21.63;11.82;;;;;;;8.07;91.19;101017.50;5005258;28;20037;-70
2023/02/17 01:36:55;;;;;;;26.23;14.68;;;;;;;8.12;90.88;101023.66;5002122;28;20482;-70
2023/02/17 01:39:20;;;;;;;22.88;11.55;;;;;;;8.03;90.93;101013.06;5005273;28;20416;-70
2023/02/17 01:41:46;;;;;;;21.35;11.15;;;;;;;7.94;91.06;101005.06;5008227;28;20400;-70
2023/02/17 01:44:19;;;;;;;23.45;12.25;;;;;;;7.88;91.18;100996.22;4987723;28;20500;-70
2023/02/17 01:46:47;;;;;;;22.23;13.10;;;;;;;7.82;91.42;101000.53;5003344;28;20042;-70
2023/02/17 01:49:29;;;;;;;24.23;12.20;;;;;;;7.80;92.51;100994.38;4986854;28;20492;-70
2023/02/17 01:52:10;;;;;;;;;;;;;;;7.85;92.24;100983.06;5003722;28;20034;-70
2023/02/17 01:54:44;;;;;;;23.52;10.35;;;;;;;7.92;92.23;100978.78;5001555;28;19921;-70
2023/02/17 01:57:12;;;;;;;20.33;11.15;;;;;;;7.94;92.27;100957.75;4989586;28;20800;-70
2023/02/17 01:59:39;;;;;;;18.55;11.15;;;;;;;8.03;91.75;100958.75;4990763;28;20033;-70
2023/02/17 02:02:05;;;;;;;24.00;12.00;;;;;;;8.09;91.17;100953.53;5007135;28;20617;-70
2023/02/17 02:04:33;;;;;;;23.05;12.50;;;;;;;8.13;91.25;100944.84;5002936;28;20038;-70
2023/02/17 02:07:02;;;;;;;17.73;10.95;;;;;;;8.21;90.87;100937.03;4993845;28;20516;-70
2023/02/17 02:09:39;;;;;;;20.10;12.18;;;;;;;8.22;90.17;100930.88;4984530;28;20030;-70
2023/02/17 02:12:20;;;;;;;20.83;12.02;;;;;;;8.27;90.59;100930.94;5001542;28;20034;-70
2023/02/17 02:14:47;;;;;;;23.27;12.55;;;;;;;8.26;90.27;100930.06;5003749;28;20054;-70
2023/02/17 02:17:34;;;;;;;21.70;12.05;;;;;;;8.31;90.16;100927.50;5004191;28;20041;-70
2023/02/17 02:20:13;;;;;;;20.08;11.70;;;;;;;8.38;90.64;100931.03;5002804;28;20481;-70
2023/02/17 02:22:54;;;;;;;22.73;12.48;;;;;;;8.39;90.63;100930.19;5007461;28;20042;-70
2023/02/17 02:26:03;;;;;;;20.30;11.85;;;;;;;8.37;91.15;100927.53;5001994;28;20042;-70
2023/02/17 02:28:44;;;;;;;20.05;11.27;;;;;;;8.41;91.08;100921.47;4983871;28;20049;-70
2023/02/17 02:31:30;;;;;;;18.50;10.95;;;;;;;8.46;91.31;100921.50;5000314;28;20034;-70
2023/02/17 02:34:09;;;;;;;25.20;11.23;;;;;;;8.49;91.13;100905.75;5002209;28;20034;-70
2023/02/17 02:37:01;;;;;;;18.50;10.80;;;;;;;8.53;91.23;100902.28;4982723;28;20121;-70
2023/02/17 02:39:36;;;;;;;17.45;10.32;;;;;;;8.51;91.62;100910.16;5004936;28;20036;-70
2023/02/17 02:42:06;;;;;;;19.65;10.50;;;;;;;8.52;91.41;100903.16;4985558;28;20412;-70
2023/02/17 02:44:31;;;;;;;24.65;10.82;;;;;;;8.49;91.92;100900.50;4992853;28;20038;-70
2023/02/17 02:47:04;;;;;;;18.75;10.35;;;;;;;8.54;92.32;100899.66;4991258;28;20171;-70
2023/02/17 02:49:34;;;;;;;20.17;10.70;;;;;;;8.51;92.30;100890.84;5000734;28;20785;-70
2023/02/17 02:52:25;;;;;;;20.75;9.98;;;;;;;8.58;92.56;100887.41;5000577;28;20185;-70
2023/02/17 02:55:02;;;;;;;16.92;9.38;;;;;;;8.57;92.67;100875.13;5003222;28;20377;-70
2023/02/17 02:57:51;;;;;;;20.63;10.30;;;;;;;8.60;92.39;100867.25;4984043;28;20030;-70
2023/02/17 03:00:40;;;;;;;17.17;9.05;;;;;;;8.61;92.78;100868.13;4986493;28;20429;-70
2023/02/17 03:03:09;;;;;;;20.83;10.48;;;;;;;8.59;92.46;100867.22;4986559;28;20053;-70
2023/02/17 03:05:50;;;;;;;14.98;9.48;;;;;;;8.61;93.14;100871.63;5006442;28;20049;-70
2023/02/17 03:08:28;;;;;;;18.85;9.25;;;;;;;8.58;93.41;100866.34;4998685;28;20209;-70
2023/02/17 03:10:54;;;;;;;18.38;9.38;;;;;;;8.60;92.99;100867.25;4999945;28;20030;-70
2023/02/17 03:13:19;;;;;;;17.45;8.95;;;;;;;8.63;93.12;100866.41;5000011;28;20092;-70
2023/02/17 03:15:46;;;;;;;17.85;9.52;;;;;;;8.66;92.80;100867.28;4988995;28;20153;-70
2023/02/17 03:18:12;;;;;;;17.48;9.18;;;;;;;8.72;92.03;100862.09;5003556;28;20053;-70
2023/02/17 03:20:44;;;;;;;18.08;9.80;;;;;;;8.70;91.90;100865.59;4985812;28;20057;-70
2023/02/17 03:23:10;;;;;;;18.73;8.55;;;;;;;8.69;91.96;100850.66;4991179;28;20042;-70
2023/02/17 03:25:35;;;;;;;17.45;9.43;;;;;;;8.73;92.23;100855.94;4983871;28;20046;-70
2023/02/17 03:28:00;;;;;;;16.33;8.75;;;;;;;8.79;91.70;100847.19;4985840;28;20548;-70
2023/02/17 03:30:27;;;;;;;17.52;8.98;;;;;;;8.82;90.82;100848.97;4981820;28;20034;-70
2023/02/17 03:32:52;;;;;;;20.60;9.98;;;;;;;8.80;90.73;100858.59;5001388;28;20044;-70
2023/02/17 03:35:18;;;;;;;14.10;7.70;;;;;;;8.86;90.47;100853.41;5000554;28;20045;-70
2023/02/17 03:37:43;;;;;;;17.08;9.27;;;;;;;8.92;91.56;100858.69;5003169;28;20038;-70
2023/02/17 03:40:09;;;;;;;18.50;8.93;;;;;;;9.07;90.24;100852.63;5003652;28;20488;-70
2023/02/17 03:42:34;;;;;;;17.08;9.23;;;;;;;9.07;90.08;100845.63;5001629;28;20560;-70
2023/02/17 03:45:00;;;;;;;25.52;12.75;;;;;;;9.09;91.36;100850.88;5005376;28;20459;-70
2023/02/17 03:47:25;;;;;;;15.43;8.40;;;;;;;9.08;89.65;100857.03;5002767;28;20092;-70
2023/02/17 03:49:51;;;;;;;15.85;7.82;;;;;;;9.04;89.93;100858.78;5008583;28;20037;-70
2023/02/17 03:52:16;;;;;;;15.48;8.27;;;;;;;9.05;90.08;100849.97;5003170;28;20059;-70
2023/02/17 03:54:42;;;;;;;13.82;7.55;;;;;;;9.06;90.50;100862.25;5003472;28;20057;-70
2023/02/17 03:57:07;;;;;;;17.45;8.13;;;;;;;8.98;91.52;100858.72;4999921;28;20708;-70
2023/02/17 03:59:33;;;;;;;14.70;8.30;;;;;;;8.93;93.53;100856.09;5002214;28;20048;-70
2023/02/17 04:01:58;;;;;;;16.65;8.80;;;;;;;8.82;96.33;100857.75;4996864;28;20034;-70
2023/02/17 04:04:23;;;;;;;17.75;8.48;;;;;;;8.70;97.80;100857.69;5003029;28;20124;-70
2023/02/17 04:06:49;;;;;;;17.48;8.85;;;;;;;8.64;100.00;100850.59;5001988;28;20168;-70
2023/02/17 04:09:14;;;;;;;19.35;9.05;;;;;;;8.59;100.00;100860.22;4999970;28;20390;-70
2023/02/17 04:11:39;;;;;;;20.25;10.77;;;;;;;8.42;100.00;100865.38;5002604;28;20037;-70
2023/02/17 04:14:05;;;;;;;21.05;11.27;;;;;;;8.28;100.00;100859.09;5003642;28;20054;-70
2023/02/17 04:16:30;;;;;;;19.80;10.65;;;;;;;8.22;100.00;100859.03;5004741;28;20066;-70
2023/02/17 04:18:55;;;;;;;20.25;12.38;;;;;;;8.05;100.00;100851.88;4999657;28;20041;-69
2023/02/17 04:21:21;;;;;;;21.50;12.63;;;;;;;7.88;100.00;100846.44;5002517;28;20081;-70
2023/02/17 04:23:46;;;;;;;18.88;10.95;;;;;;;7.84;100.00;100834.16;5003000;28;20057;-70
2023/02/17 04:26:11;;;;;;;17.98;11.18;;;;;;;7.76;100.00;100822.69;4998944;28;20034;-70
2023/02/17 04:28:38;;;;;;;21.50;12.52;;;;;;;7.68;100.00;100845.38;5003008;28;20477;-70
2023/02/17 04:31:04;;;;;;;20.42;11.05;;;;;;;7.64;100.00;100840.94;4998857;28;20038;-70
2023/02/17 04:33:29;;;;;;;23.00;12.05;;;;;;;7.63;100.00;100826.06;5001593;28;20109;-70
2023/02/17 04:35:58;;;;;;;23.15;13.20;;;;;;;7.63;100.00;100831.31;5008102;28;20030;-70
2023/02/17 04:38:27;;;;;;;25.42;13.15;;;;;;;7.55;100.00;100822.47;5007887;28;20034;-70
2023/02/17 04:40:57;;;;;;;20.75;11.70;;;;;;;7.56;100.00;100824.22;5001307;28;20038;-69
2023/02/17 04:43:24;;;;;;;20.65;12.38;;;;;;;7.54;100.00;100816.31;5000497;28;20038;-70
2023/02/17 04:45:50;;;;;;;22.25;11.73;;;;;;;7.55;100.00;100819.84;5006035;28;20047;-70
2023/02/17 04:48:15;;;;;;;18.58;11.43;;;;;;;7.63;100.00;100815.53;5004966;28;20034;-70
2023/02/17 04:50:40;;;;;;;18.95;11.95;;;;;;;7.67;100.00;100817.31;5003518;28;20042;-70
2023/02/17 04:53:06;;;;;;;22.63;10.98;;;;;;;7.65;100.00;100812.06;5004947;28;20041;-70
2023/02/17 04:55:32;;;;;;;20.88;13.10;;;;;;;7.64;100.00;100812.91;5002118;28;20045;-70
2023/02/17 04:57:58;;;;;;;22.00;12.52;;;;;;;7.70;100.00;100809.47;5005856;28;20030;-69
2023/02/17 05:00:23;;;;;;;22.33;11.43;;;;;;;7.71;100.00;100802.50;5006800;28;20467;-70
2023/02/17 05:02:48;;;;;;;22.15;12.05;;;;;;;7.75;100.00;100806.88;5002834;28;20034;-70
2023/02/17 05:05:14;;;;;;;19.67;10.98;;;;;;;7.75;100.00;100802.50;5009836;28;20044;-70
2023/02/17 05:07:41;;;;;;;20.17;12.75;;;;;;;7.82;100.00;100800.84;5006241;28;20122;-70
2023/02/17 05:10:07;;;;;;;22.48;12.05;;;;;;;7.82;100.00;100796.47;5004364;28;20045;-70
2023/02/17 05:12:32;;;;;;;19.70;11.00;;;;;;;7.87;100.00;100786.88;5005818;28;20033;-70
2023/02/17 05:14:58;;;;;;;18.00;11.82;;;;;;;7.86;100.00;100776.38;5014223;28;20511;-70
2023/02/17 05:17:23;;;;;;;20.23;11.43;;;;;;;7.91;100.00;100787.75;5005173;28;20042;-70
2023/02/17 05:19:48;;;;;;;20.55;12.00;;;;;;;7.92;100.00;100786.03;5005480;28;20121;-70
2023/02/17 05:22:14;;;;;;;18.88;11.20;;;;;;;7.97;100.00;100784.34;5001812;28;20125;-70
2023/02/17 05:24:39;;;;;;;19.52;11.27;;;;;;;7.99;100.00;100777.31;5006034;28;20120;-70
2023/02/17 05:27:04;;;;;;;19.83;11.18;;;;;;;7.93;100.00;100777.28;5001341;28;20141;-70
2023/02/17 05:29:30;;;;;;;19.92;10.32;;;;;;;7.99;100.00;100767.72;5004023;28;20045;-70
2023/02/17 05:31:55;;;;;;;21.85;11.10;;;;;;;8.04;100.00;100765.09;5001024;28;20035;-70
2023/02/17 05:34:20;;;;;;;16.40;9.88;;;;;;;8.08;100.00;100764.25;5019950;28;20052;-70
2023/02/17 05:36:46;;;;;;;23.25;10.07;;;;;;;8.08;100.00;100761.63;5004248;28;20127;-70
2023/02/17 05:39:11;;;;;;;17.25;8.75;;;;;;;8.09;100.00;100758.13;5006215;28;20069;-69
2023/02/17 05:41:36;;;;;;;16.92;10.00;;;;;;;8.15;100.00;100755.56;5004435;28;20041;-70
2023/02/17 05:44:02;;;;;;;16.65;9.18;;;;;;;8.18;100.00;100757.34;5002241;28;20678;-69
2023/02/17 05:46:27;;;;;;;16.20;9.07;;;;;;;8.23;100.00;100759.13;5001486;28;20092;-70
2023/02/17 05:48:52;;;;;;;16.52;9.80;;;;;;;8.26;100.00;100748.63;5006944;28;20053;-69
2023/02/17 05:51:18;;;;;;;15.82;9.30;;;;;;;8.29;100.00;100756.53;5005709;28;20038;-69
2023/02/17 05:53:43;;;;;;;15.35;9.70;;;;;;;8.38;100.00;100754.81;5007758;28;20049;-70
2023/02/17 05:56:09;;;;;;;17.08;9.18;;;;;;;8.41;100.00;100757.50;5003670;28;20503;-70
2023/02/17 05:58:34;;;;;;;17.85;9.60;;;;;;;8.44;100.00;100747.03;5006610;28;20046;-70
2023/02/17 06:00:59;;;;;;;20.30;9.63;;;;;;;8.49;100.00;100756.69;5009420;28;20037;-70
2023/02/17 06:03:25;;;;;;;14.23;8.02;;;;;;;8.53;100.00;100752.31;5009477;28;20042;-70
2023/02/17 06:05:50;;;;;;;18.33;8.27;;;;;;;8.59;100.00;100757.59;5004692;28;20074;-70
2023/02/17 06:08:15;;;;;;;11.27;7.43;;;;;;;8.58;100.00;100741.84;5004173;28;20030;-70
2023/02/17 06:10:41;;;;;;;10.73;7.35;;;;;;;8.61;100.00;100745.34;5009048;28;20045;-70
2023/02/17 06:13:07;;;;;;;15.00;8.40;;;;;;;8.60;100.00;100746.25;5012875;28;20608;-70
2023/02/17 06:15:32;;;;;;;13.93;8.02;;;;;;;8.64;100.00;100758.53;5007677;28;20033;-70
2023/02/17 06:17:58;;;;;;;12.60;7.72;;;;;;;8.65;100.00;100757.66;5006593;28;20046;-70
2023/02/17 06:20:23;;;;;;;16.02;8.75;;;;;;;8.66;100.00;100756.78;4985081;28;20033;-70
2023/02/17 06:22:48;;;;;;;15.73;7.93;;;;;;;8.70;100.00;100755.94;5002878;28;20489;-70
2023/02/17 06:25:14;;;;;;;12.27;7.85;;;;;;;8.75;100.00;100751.56;5004211;28;20045;-70
2023/02/17 06:27:41;;;;;;;15.25;8.43;;;;;;;8.71;100.00;100749.78;5003528;28;20026;-70
2023/02/17 06:30:07;;;;;;;13.90;7.13;;;;;;;8.82;100.00;100741.06;5001899;28;20512;-70
2023/02/17 06:32:33;;;;;;;14.63;7.45;;;;;;;8.82;100.00;100738.44;5006225;28;20034;-70
2023/02/17 06:34:58;;;;;;;18.45;8.02;;;;;;;8.85;100.00;100735.81;5004258;28;20049;-70
2023/02/17 06:37:24;;;;;;;13.27;6.03;;;;;;;8.89;100.00;100737.59;5000830;28;20030;-70
2023/02/17 06:39:49;;;;;;;13.93;5.78;;;;;;;8.90;100.00;100739.34;5000387;28;20045;-70
2023/02/17 06:42:15;;;;;;;10.13;5.72;;;;;;;8.88;100.00;100739.34;5003964;28;20206;-70
2023/02/17 06:44:40;;;;;;;11.38;5.93;;;;;;;8.90;100.00;100744.59;5005319;28;20065;-70
2023/02/17 06:47:05;;;;;;;12.48;6.20;;;;;;;8.90;100.00;100739.34;5004149;28;20064;-70
2023/02/17 06:49:31;;;;;;;11.73;4.97;;;;;;;8.97;100.00;100741.13;5006043;28;20497;-70
2023/02/17 06:51:56;;;;;;;13.27;5.65;;;;;;;8.99;100.00;100745.53;5000829;28;20480;-70
2023/02/17 06:54:21;;;;;;;11.80;5.78;;;;;;;9.04;100.00;100742.94;5003216;28;20407;-70
2023/02/17 06:56:47;;;;;;;13.07;5.10;;;;;;;9.07;100.00;100736.78;5000916;28;20500;-70
2023/02/17 06:59:12;;;;;;;13.02;5.82;;;;;;;9.02;100.00;100731.50;5003903;28;20449;-70
2023/02/17 07:01:37;;;;;;;12.98;5.63;;;;;;;9.10;100.00;100740.31;5006132;28;20449;-70
2023/02/17 07:04:03;;;;;;;12.25;6.00;;;;;;;9.14;100.00;100742.09;5003391;28;20034;-70
2023/02/17 07:06:28;;;;;;;11.35;5.97;;;;;;;9.14;100.00;100750.00;4999365;28;20121;-70
2023/02/17 07:08:54;;;;;;;9.88;5.68;;;;;;;9.20;100.00;100746.50;4997797;28;20053;-70
2023/02/17 07:11:19;;;;;;;9.15;5.40;;;;;;;9.18;100.00;100743.84;5005012;28;20030;-70
2023/02/17 07:13:45;;;;;;;9.95;5.43;;;;;;;9.20;100.00;100742.09;5005725;28;20513;-70
2023/02/17 07:16:12;;;;;;;9.77;5.32;;;;;;;9.20;100.00;100734.19;5004185;28;20489;-70
2023/02/17 07:18:38;;;;;;;11.50;5.95;;;;;;;9.26;100.00;100737.72;5003513;28;20030;-70
2023/02/17 07:21:07;;;;;;;11.82;6.28;;;;;;;9.30;100.00;100739.47;5000810;28;20042;-70
2023/02/17 07:23:33;;;;;;;10.85;5.32;;;;;;;9.32;100.00;100732.44;5002272;28;20444;-70
2023/02/17 07:26:07;;;;;;;9.38;5.72;;;;;;;9.33;100.00;100742.13;5000365;28;20038;-70
2023/02/17 07:28:32;;;;;;;11.30;5.38;;;;;;;9.39;100.00;100729.84;5001128;28;20507;-70
2023/02/17 07:31:03;;;;;;;9.48;4.80;;;;;;;9.42;100.00;100739.50;5002151;28;20038;-70
2023/02/17 07:33:29;;;;;;;12.85;6.70;;;;;;;9.43;100.00;100723.72;5003526;28;20116;-70
2023/02/17 07:35:54;;;;;;;10.80;5.32;;;;;;;9.50;100.00;100727.22;4999145;28;20117;-70
2023/02/17 07:38:19;;;;;;;9.93;5.63;;;;;;;9.49;100.00;100725.47;5002997;28;20043;-70
2023/02/17 07:40:45;;;;;;;9.57;5.10;;;;;;;9.60;100.00;100728.13;4999634;28;20113;-70
2023/02/17 07:43:10;;;;;;;9.50;5.32;;;;;;;9.61;100.00;100730.72;5010222;28;20065;-70
2023/02/17 07:45:35;;;;;;;9.27;4.70;;;;;;;9.63;100.00;100721.09;5006329;28;20077;-70
2023/02/17 07:48:01;;;;;;;10.40;4.72;;;;;;;9.59;100.00;100727.25;5002261;28;20117;-70
2023/02/17 07:50:26;;;;;;;8.38;4.82;;;;;;;9.62;100.00;100729.00;5003048;28;20081;-70
2023/02/17 07:52:51;;;;;;;8.13;4.03;;;;;;;9.62;100.00;100729.88;5004576;28;20433;-70
2023/02/17 07:55:16;;;;;;;11.52;5.00;;;;;;;9.70;100.00;100739.56;5001340;28;20405;-70
2023/02/17 07:57:42;;;;;;;8.70;4.28;;;;;;;9.71;100.00;100730.75;5002369;28;20455;-70
2023/02/17 08:00:08;;;;;;;7.80;3.95;;;;;;;9.72;100.00;100741.31;4999349;28;20049;-70
2023/02/17 08:02:38;;;;;;;9.52;4.47;;;;;;;9.78;100.00;100740.44;5002184;28;20394;-70
2023/02/17 08:05:03;;;;;;;7.60;4.47;;;;;;;9.75;100.00;100738.69;5002977;28;20041;-70
2023/02/17 08:07:29;;;;;;;11.50;6.13;;;;;;;9.75;100.00;100735.16;5002343;28;20080;-70
2023/02/17 08:15:21;;;;;;;9.25;4.95;;;;;;;9.84;100.00;100735.16;5003280;28;20041;-70
2023/02/17 08:17:47;;;;;;;7.20;4.43;;;;;;;9.85;100.00;100739.53;5002773;28;20034;-70
2023/02/17 08:20:14;;;;;;;9.68;4.72;;;;;;;9.88;100.00;100739.56;5000618;28;20065;-70
2023/02/17 08:22:39;;;;;;;7.88;4.22;;;;;;;9.94;100.00;100734.28;5011518;28;20038;-70
2023/02/17 08:25:05;;;;;;;8.50;4.38;;;;;;;9.99;100.00;100727.25;5008116;28;20408;-70
2023/02/17 08:27:30;;;;;;;8.13;4.78;;;;;;;10.08;100.00;100727.22;5004725;28;20069;-70
2023/02/17 08:29:56;;;;;;;9.25;4.38;;;;;;;10.16;100.00;100723.69;5009840;28;20105;-70
2023/02/17 08:32:21;;;;;;;9.85;4.78;;;;;;;10.26;100.00;100720.19;5007201;28;20033;-70
2023/02/17 08:34:46;;;;;;;9.60;4.53;;;;;;;10.32;100.00;100714.91;5009602;28;20408;-70
2023/02/17 08:37:12;;;;;;;9.35;3.75;;;;;;;10.46;100.00;100707.84;5006030;28;20070;-70
2023/02/17 08:39:37;;;;;;;6.40;3.40;;;;;;;10.56;100.00;100707.81;5001078;28;20131;-70
2023/02/17 08:42:03;;;;;;;6.63;2.95;;;;;;;10.54;100.00;100697.28;5008733;28;20093;-70
2023/02/17 08:44:29;;;;;;;7.35;4.03;;;;;;;10.57;100.00;100693.75;5007062;28;20037;-70
2023/02/17 08:46:54;;;;;;;7.43;3.17;;;;;;;10.61;100.00;100690.19;5001879;28;20112;-70
2023/02/17 08:49:22;;;;;;;6.97;3.63;;;;;;;10.69;100.00;100693.72;5006216;28;20459;-70
2023/02/17 08:51:48;;;;;;;9.10;3.83;;;;;;;10.67;100.00;100677.00;5002789;28;20045;-70
2023/02/17 08:54:14;;;;;;;7.82;3.63;;;;;;;10.79;100.00;100676.91;5005675;28;20038;-70
2023/02/17 08:56:40;;;;;;;6.25;2.90;;;;;;;10.89;100.00;100683.91;5002242;28;20045;-70
2023/02/17 08:59:08;;;;;;;12.38;3.42;;;;;;;10.91;100.00;100682.16;5005379;28;20033;-70
2023/02/17 09:01:34;;;;;;;6.97;3.22;;;;;;;10.94;100.00;100681.25;5006804;28;20032;-70
2023/02/17 09:04:02;;;;;;;6.97;3.58;;;;;;;11.01;100.00;100680.34;5010500;28;20064;-70
2023/02/17 09:06:35;;;;;;;7.40;3.70;;;;;;;11.02;99.73;100681.22;5003448;28;20448;-70
2023/02/17 09:09:02;;;;;;;6.97;3.30;;;;;;;11.13;99.61;100674.09;5004452;28;20049;-70
2023/02/17 09:11:27;;;;;;;7.50;3.17;;;;;;;11.21;99.10;100674.94;5008621;28;20018;-70
2023/02/17 09:13:52;;;;;;;7.43;3.78;;;;;;;11.28;98.65;100684.56;5006154;28;20374;-70
2023/02/17 09:16:19;;;;;;;6.32;3.28;;;;;;;11.21;98.68;100695.19;5004728;28;20395;-70
2023/02/17 09:18:45;;;;;;;9.88;3.35;;;;;;;11.27;98.30;100687.25;5005622;28;20036;-70
2023/02/17 09:21:12;;;;;;;5.93;3.13;;;;;;;11.34;97.51;100692.47;5006256;28;20034;-70
2023/02/17 09:23:38;;;;;;;8.98;4.65;;;;;;;11.42;96.34;100681.81;5008718;28;20030;-70
2023/02/17 09:26:07;;;;;;;9.35;3.72;;;;;;;11.33;96.37;100676.63;5005241;28;20035;-70
2023/02/17 09:28:33;;;;;;;5.78;2.90;;;;;;;11.29;98.04;100680.16;5004923;28;20041;-70
2023/02/17 09:30:58;;;;;;;5.40;2.40;;;;;;;11.23;97.77;100669.66;5004714;28;20377;-70
2023/02/17 09:33:23;;;;;;;5.00;2.70;;;;;;;11.16;97.86;100669.69;5009980;28;20440;-70
2023/02/17 09:35:49;;;;;;;6.57;3.03;;;;;;;11.10;98.17;100664.44;5003069;28;20038;-70
2023/02/17 09:38:15;;;;;;;4.32;1.77;;;;;;;11.16;98.53;100669.69;4993872;28;20034;-70
2023/02/17 09:40:49;;;;;;;4.60;2.40;;;;;;;11.23;98.61;100659.94;5004406;28;20117;-70
2023/02/17 09:43:17;;;;;;;8.65;2.80;;;;;;;11.22;98.34;100655.56;5005570;28;20076;-70
2023/02/17 09:45:51;;;;;;;5.25;2.33;;;;;;;11.15;97.76;100656.47;5007653;28;20057;-70
2023/02/17 09:48:20;;;;;;;5.80;2.65;;;;;;;11.22;97.86;100665.25;5001791;28;20508;-70
2023/02/17 09:50:54;;;;;;;7.55;2.35;;;;;;;11.19;97.59;100663.50;5004269;28;20408;-70
2023/02/17 09:53:33;;;;;;;5.28;2.28;;;;;;;11.21;96.97;100663.50;5000503;28;20046;-70
2023/02/17 09:56:04;;;;;;;4.43;2.17;;;;;;;11.22;97.78;100658.22;5013230;28;20435;-70
2023/02/17 09:58:35;;;;;;;4.60;2.30;;;;;;;11.20;98.05;100649.41;5010955;28;20045;-70
2023/02/17 10:01:03;;;;;;;6.28;2.60;;;;;;;11.17;100.00;100639.75;5006106;28;20038;-70
2023/02/17 10:03:38;;;;;;;7.22;2.72;;;;;;;11.21;100.00;100635.28;5003114;28;20129;-70
2023/02/17 10:06:31;;;;;;;5.03;2.17;;;;;;;11.16;99.49;100647.66;5007567;28;20073;-70
2023/02/17 10:09:18;;;;;;;4.70;1.90;;;;;;;11.15;99.99;100633.59;5004974;28;20516;-70
2023/02/17 10:12:01;;;;;;;4.47;2.33;;;;;;;11.12;99.38;100628.31;5003375;28;20485;-70
2023/02/17 10:14:33;;;;;;;4.63;1.50;;;;;;;11.21;98.96;100611.53;5001557;28;20493;-70
2023/02/17 10:17:25;;;;;;;;;;;;;;;11.25;97.56;100610.63;5005312;28;20084;-70
2023/02/17 10:20:05;;;;;;;5.53;1.95;;;;;;;11.34;98.39;100600.00;4999806;28;19918;-70
2023/02/17 10:22:32;;;;;;;6.68;2.25;;;;;;;11.42;97.59;100597.25;5004928;28;20108;-69
2023/02/17 10:25:00;;;;;;;5.30;2.65;;;;;;;11.43;97.15;100587.59;5004195;28;20068;-70
2023/02/17 10:27:41;;;;;;;4.97;2.53;;;;;;;11.49;96.94;100593.69;5004098;28;20034;-70
2023/02/17 10:30:29;;;;;;;3.88;2.17;;;;;;;11.59;96.14;100583.91;5001711;28;20034;-70
2023/02/17 10:33:08;;;;;;;5.30;1.40;;;;;;;11.56;95.53;100589.22;5002418;28;20042;-70
2023/02/17 10:35:50;;;;;;;3.55;1.73;;;;;;;11.47;96.40;100589.28;4999982;28;20049;-70
2023/02/17 10:38:36;;;;;;;5.63;2.08;;;;;;;11.41;97.76;100590.22;5004219;28;20056;-70
2023/02/17 10:41:07;;;;;;;5.60;2.13;;;;;;;11.50;97.66;100583.97;5001506;28;20078;-70
2023/02/17 10:43:33;;;;;;;6.63;2.60;;;;;;;11.43;98.39;100579.66;5009151;28;20040;-70
2023/02/17 10:46:01;;;;;;;4.40;1.90;;;;;;;11.31;99.40;100583.28;5003505;28;20400;-70
2023/02/17 10:48:48;;;;;;;4.22;1.63;;;;;;;11.21;100.00;100571.91;5003388;28;20038;-70
2023/02/17 10:51:17;;;;;;;4.53;1.40;;;;;;;11.08;100.00;100562.31;5002174;28;20041;-70
2023/02/17 10:53:46;;;;;;;6.47;3.08;;;;;;;10.99;100.00;100557.13;5001436;28;20041;-70
2023/02/17 10:56:24;;;;;;;6.82;2.05;;;;;;;10.90;100.00;100548.38;5002445;28;20579;-70
2023/02/17 10:58:56;;;;;;;4.25;2.10;;;;;;;10.79;100.00;100546.69;5000899;28;20060;-70
2023/02/17 11:01:22;;;;;;;;;;;;;;;10.74;100.00;100538.78;5006228;28;20070;-70
2023/02/17 11:03:59;;;;;;;4.05;1.67;;;;;;;10.77;100.00;100528.25;5001988;28;20395;-70
2023/02/17 11:06:25;;;;;;;4.30;1.85;;;;;;;10.78;100.00;100532.63;4982209;28;20038;-70
2023/02/17 11:08:57;;;;;;;6.38;2.75;;;;;;;10.88;100.00;100510.53;5000560;28;20061;-70
2023/02/17 11:11:26;;;;;;;3.90;1.45;;;;;;;11.03;100.00;100519.22;5006866;28;20496;-70
2023/02/17 11:14:07;;;;;;;5.47;2.20;;;;;;;11.03;100.00;100522.75;5006299;28;20060;-70
2023/02/17 11:16:42;;;;;;;3.92;1.77;;;;;;;11.14;100.00;100517.38;5002707;28;20047;-70
2023/02/17 11:19:25;;;;;;;6.03;1.83;;;;;;;11.11;100.00;100505.06;5000841;28;20133;-70
2023/02/17 11:21:53;;;;;;;4.55;2.10;;;;;;;11.15;100.00;100509.44;5003682;28;20042;-70
2023/02/17 11:24:19;;;;;;;3.83;1.55;;;;;;;11.19;100.00;100494.44;5003435;28;20400;-70
2023/02/17 11:27:00;;;;;;;4.20;2.00;;;;;;;11.21;100.00;100492.63;4999179;28;20034;-70
2023/02/17 11:29:26;;;;;;;4.70;2.30;;;;;;;11.29;100.00;100487.28;5000921;28;20038;-70
2023/02/17 11:31:54;;;;;;;3.67;1.65;;;;;;;11.34;100.00;100473.16;5004431;28;20484;-71